createdAt,value
2023-03-06T00:00:26.035Z,58.33
2023-03-06T00:02:53.182Z,59.00
2023-03-06T00:05:20.078Z,59.09
2023-03-06T00:07:46.860Z,59.80
2023-03-06T00:10:25.377Z,60.38
2023-03-06T00:12:53.468Z,59.97
2023-03-06T00:15:21.040Z,60.35
2023-03-06T00:17:47.903Z,60.25
2023-03-06T00:20:15.493Z,59.95
2023-03-06T00:22:42.759Z,59.90
2023-03-06T00:25:14.958Z,59.86
2023-03-06T00:27:42.302Z,59.64
2023-03-06T00:30:12.804Z,59.16
2023-03-06T00:32:42.528Z,59.32
2023-03-06T00:35:09.698Z,59.34
2023-03-06T00:37:36.810Z,59.53
2023-03-06T00:40:11.238Z,60.03
2023-03-06T00:42:38.025Z,60.70
2023-03-06T00:45:05.350Z,60.06
2023-03-06T00:47:32.210Z,61.01
2023-03-06T00:49:59.030Z,60.89
2023-03-06T00:52:25.791Z,60.90
2023-03-06T00:54:52.642Z,60.42
2023-03-06T00:57:19.397Z,60.46
2023-03-06T00:59:46.300Z,60.18
2023-03-06T01:02:13.651Z,59.97
2023-03-06T01:04:40.449Z,60.22
2023-03-06T01:07:07.476Z,60.18
2023-03-06T01:09:34.245Z,59.86
2023-03-06T01:12:01.096Z,60.30
2023-03-06T01:14:28.070Z,59.65
2023-03-06T01:16:54.866Z,59.78
2023-03-06T01:19:21.785Z,60.02
2023-03-06T01:21:48.568Z,60.42
2023-03-06T01:24:15.472Z,60.86
2023-03-06T01:26:42.330Z,60.88
2023-03-06T01:29:09.239Z,60.99
2023-03-06T01:31:36.047Z,61.24
2023-03-06T01:34:02.860Z,60.95
2023-03-06T01:36:29.719Z,60.98
2023-03-06T01:38:56.489Z,60.96
2023-03-06T01:41:23.306Z,60.99
2023-03-06T01:43:50.233Z,60.79
2023-03-06T01:46:46.230Z,60.73
2023-03-06T01:49:19.222Z,60.26
2023-03-06T01:51:52.889Z,59.97
2023-03-06T01:54:30.719Z,60.10
2023-03-06T01:57:03.717Z,59.98
2023-03-06T01:59:33.338Z,60.03
2023-03-06T02:02:01.860Z,60.18
2023-03-06T02:04:29.669Z,60.21
2023-03-06T02:07:00.182Z,59.82
2023-03-06T02:09:30.012Z,59.40
2023-03-06T02:11:57.076Z,59.80
2023-03-06T02:14:24.328Z,59.66
2023-03-06T02:16:51.552Z,59.13
2023-03-06T02:19:21.156Z,59.02
2023-03-06T02:21:49.936Z,59.07
2023-03-06T02:24:45.761Z,58.49
2023-03-06T02:27:14.455Z,59.38
2023-03-06T02:29:41.963Z,59.00
2023-03-06T02:32:09.212Z,58.60
2023-03-06T02:34:38.976Z,58.53
2023-03-06T02:37:10.025Z,58.66
2023-03-06T02:39:42.221Z,58.76
2023-03-06T02:42:09.125Z,58.94
2023-03-06T02:44:36.337Z,58.90
2023-03-06T02:47:03.165Z,58.56
2023-03-06T02:49:29.898Z,58.75
2023-03-06T02:51:57.570Z,59.06
2023-03-06T02:54:24.347Z,58.99
2023-03-06T02:56:51.043Z,58.75
2023-03-06T02:59:17.830Z,58.80
2023-03-06T03:01:45.669Z,58.58
2023-03-06T03:04:12.495Z,58.97
2023-03-06T03:06:39.501Z,59.03
2023-03-06T03:09:07.461Z,59.07
2023-03-06T03:11:35.495Z,59.00
2023-03-06T03:14:02.374Z,59.23
2023-03-06T03:16:29.178Z,59.43
2023-03-06T03:18:58.478Z,59.48
2023-03-06T03:21:26.250Z,59.84
2023-03-06T03:23:54.775Z,60.24
2023-03-06T03:26:22.187Z,60.11
2023-03-06T03:28:56.314Z,60.70
2023-03-06T03:31:23.287Z,60.51
2023-03-06T03:33:50.478Z,60.40
2023-03-06T03:36:18.902Z,60.08
2023-03-06T03:38:47.385Z,60.10
2023-03-06T03:41:14.612Z,60.61
2023-03-06T03:43:43.080Z,60.23
2023-03-06T03:46:10.589Z,60.61
2023-03-06T03:48:37.404Z,60.53
2023-03-06T03:51:13.830Z,60.35
2023-03-06T03:53:45.724Z,60.72
2023-03-06T03:56:15.440Z,60.44
2023-03-06T03:58:51.672Z,60.18
2023-03-06T04:01:19.086Z,60.06
2023-03-06T04:03:45.941Z,59.93
2023-03-06T04:06:14.977Z,59.77
2023-03-06T04:08:42.172Z,59.10
2023-03-06T04:11:09.410Z,58.80
2023-03-06T04:13:36.243Z,58.89
2023-03-06T04:16:04.417Z,58.21
2023-03-06T04:18:33.078Z,58.11
2023-03-06T04:21:04.406Z,58.10
2023-03-06T04:23:31.690Z,58.31
2023-03-06T04:25:58.629Z,58.10
2023-03-06T04:28:25.513Z,57.80
2023-03-06T04:30:52.567Z,57.65
2023-03-06T04:33:21.149Z,57.74
2023-03-06T04:35:48.592Z,57.61
2023-03-06T04:38:21.000Z,57.40
2023-03-06T04:40:49.750Z,57.46
2023-03-06T04:43:16.884Z,57.27
2023-03-06T04:45:43.835Z,57.14
2023-03-06T04:48:14.316Z,57.11
2023-03-06T04:50:41.142Z,57.47
2023-03-06T04:53:08.998Z,58.10
2023-03-06T04:55:35.862Z,58.24
2023-03-06T04:58:02.834Z,58.89
2023-03-06T05:00:33.030Z,58.75
2023-03-06T05:03:01.535Z,58.60
2023-03-06T05:05:28.788Z,58.83
2023-03-06T05:07:55.663Z,59.22
2023-03-06T05:10:23.033Z,59.08
2023-03-06T05:12:49.905Z,58.71
2023-03-06T05:15:17.026Z,59.54
2023-03-06T05:17:44.734Z,60.00
2023-03-06T05:20:12.542Z,59.73
2023-03-06T05:22:39.517Z,59.91
2023-03-06T05:25:06.953Z,59.71
2023-03-06T05:27:34.345Z,59.54
2023-03-06T05:30:01.190Z,59.43
2023-03-06T05:32:28.324Z,59.72
2023-03-06T05:34:55.280Z,59.33
2023-03-06T05:37:23.176Z,59.53
2023-03-06T05:39:50.873Z,59.32
2023-03-06T05:42:18.406Z,59.05
2023-03-06T05:44:45.541Z,59.20
2023-03-06T05:47:12.704Z,58.85
2023-03-06T05:49:39.762Z,59.46
2023-03-06T05:52:08.029Z,59.02
2023-03-06T05:54:36.840Z,59.40
2023-03-06T05:57:05.270Z,59.98
2023-03-06T05:59:33.147Z,59.88
2023-03-06T06:02:01.358Z,59.68
2023-03-06T06:04:28.292Z,59.38
2023-03-06T06:06:57.892Z,59.29
2023-03-06T06:09:25.481Z,59.30
2023-03-06T06:11:58.222Z,59.07
2023-03-06T06:14:26.479Z,59.81
2023-03-06T06:16:53.530Z,60.00
2023-03-06T06:19:21.299Z,59.97
2023-03-06T06:21:51.130Z,59.46
2023-03-06T06:24:19.757Z,59.24
2023-03-06T06:26:47.293Z,59.24
2023-03-06T06:29:14.088Z,59.55
2023-03-06T06:31:41.101Z,59.00
2023-03-06T06:34:09.798Z,59.08
2023-03-06T06:36:36.920Z,58.88
2023-03-06T06:39:04.973Z,58.97
2023-03-06T06:41:46.611Z,58.63
2023-03-06T06:44:20.659Z,58.67
2023-03-06T06:49:35.582Z,58.91
2023-03-06T06:52:02.447Z,58.79
2023-03-06T06:54:29.317Z,58.76
2023-03-06T06:56:56.081Z,58.52
2023-03-06T06:59:25.581Z,58.67
2023-03-06T07:01:52.701Z,58.36
2023-03-06T07:04:19.887Z,58.10
2023-03-06T07:06:46.873Z,57.83
2023-03-06T07:09:13.880Z,57.93
2023-03-06T07:11:41.720Z,57.30
2023-03-06T07:14:08.936Z,57.38
2023-03-06T07:16:35.734Z,56.74
2023-03-06T07:19:02.904Z,56.80
2023-03-06T07:21:29.720Z,56.54
2023-03-06T07:23:57.597Z,56.47
2023-03-06T07:26:28.385Z,56.16
2023-03-06T07:28:55.449Z,55.81
2023-03-06T07:31:24.848Z,55.88
2023-03-06T07:33:53.305Z,55.40
2023-03-06T07:36:21.313Z,55.63
2023-03-06T07:38:48.048Z,55.72
2023-03-06T07:41:16.522Z,55.31
2023-03-06T07:43:44.875Z,55.46
2023-03-06T07:46:14.301Z,55.21
2023-03-06T07:48:42.179Z,55.61
2023-03-06T07:51:15.813Z,55.59
2023-03-06T07:53:43.107Z,55.29
2023-03-06T07:56:11.905Z,55.42
2023-03-06T07:58:41.258Z,55.31
2023-03-06T08:01:11.258Z,55.69
2023-03-06T08:03:38.004Z,55.74
2023-03-06T08:06:16.229Z,55.32
2023-03-06T08:08:44.713Z,55.22
2023-03-06T08:11:13.804Z,54.92
2023-03-06T08:13:40.854Z,54.64
2023-03-06T08:16:08.378Z,57.53
2023-03-06T08:18:35.557Z,57.79
2023-03-06T08:21:10.574Z,56.22
2023-03-06T08:23:37.606Z,55.98
2023-03-06T08:26:07.580Z,57.62
2023-03-06T08:28:34.521Z,52.61
2023-03-06T08:31:09.861Z,57.17
2023-03-06T08:33:37.179Z,52.50
2023-03-06T08:36:04.231Z,53.09
2023-03-06T08:38:31.087Z,56.32
2023-03-06T08:40:58.049Z,55.41
2023-03-06T08:43:24.781Z,55.10
2023-03-06T08:45:56.449Z,55.42
2023-03-06T08:48:23.338Z,52.96
2023-03-06T08:50:50.072Z,51.14
2023-03-06T08:53:17.320Z,52.00
2023-03-06T08:55:44.041Z,53.46
2023-03-06T08:58:11.233Z,52.20
2023-03-06T09:00:38.367Z,51.12
2023-03-06T09:03:05.854Z,50.43
2023-03-06T09:05:32.668Z,50.31
2023-03-06T09:07:59.418Z,50.60
2023-03-06T09:10:26.994Z,50.23
2023-03-06T09:12:55.366Z,50.42
2023-03-06T09:15:24.858Z,50.43
2023-03-06T09:17:52.229Z,50.50
2023-03-06T09:20:19.500Z,50.28
2023-03-06T09:22:46.652Z,50.60
2023-03-06T09:25:17.579Z,53.73
2023-03-06T09:27:44.382Z,51.00
2023-03-06T09:30:12.357Z,50.39
2023-03-06T09:32:39.089Z,50.40
2023-03-06T09:35:06.615Z,50.78
2023-03-06T09:37:33.435Z,50.66
2023-03-06T09:40:00.226Z,50.52
2023-03-06T09:42:28.900Z,50.42
2023-03-06T09:45:04.633Z,50.76
2023-03-06T09:47:37.072Z,50.23
2023-03-06T09:50:29.233Z,50.64
2023-03-06T09:53:27.507Z,50.68
2023-03-06T09:56:02.478Z,50.86
2023-03-06T09:58:31.664Z,51.19
2023-03-06T10:01:07.186Z,51.38
2023-03-06T10:03:45.179Z,51.30
2023-03-06T10:06:21.209Z,51.12
2023-03-06T10:09:05.588Z,51.35
2023-03-06T10:11:42.302Z,51.58
2023-03-06T10:14:20.861Z,51.52
2023-03-06T10:16:47.819Z,51.59
2023-03-06T10:19:19.560Z,51.68
2023-03-06T10:22:04.412Z,51.64
2023-03-06T10:24:52.939Z,51.96
2023-03-06T10:27:45.404Z,52.04
2023-03-06T10:30:12.378Z,53.51
2023-03-06T10:33:02.394Z,53.56
2023-03-06T10:35:37.006Z,53.72
2023-03-06T10:38:29.994Z,53.77
2023-03-06T10:41:02.513Z,54.27
2023-03-06T10:43:29.262Z,53.94
2023-03-06T10:45:56.779Z,54.25
2023-03-06T10:48:26.137Z,54.67
2023-03-06T10:50:54.987Z,54.69
2023-03-06T10:53:29.077Z,54.22
2023-03-06T10:55:58.413Z,54.58
2023-03-06T10:58:29.155Z,54.76
2023-03-06T11:01:02.664Z,54.64
2023-03-06T11:03:30.134Z,54.57
2023-03-06T11:06:05.810Z,54.55
2023-03-06T11:08:32.892Z,54.86
2023-03-06T11:11:15.014Z,54.48
2023-03-06T11:13:43.990Z,54.31
2023-03-06T11:16:32.686Z,54.98
2023-03-06T11:19:03.932Z,55.08
2023-03-06T11:21:36.142Z,55.35
2023-03-06T11:24:08.681Z,54.82
2023-03-06T11:26:48.616Z,54.63
2023-03-06T11:29:27.815Z,54.69
2023-03-06T11:32:09.627Z,54.77
2023-03-06T11:34:41.854Z,54.51
2023-03-06T11:37:30.715Z,54.66
2023-03-06T11:40:13.646Z,53.98
2023-03-06T11:43:25.399Z,53.33
2023-03-06T11:46:23.495Z,52.99
2023-03-06T11:49:13.385Z,53.57
2023-03-06T11:51:50.032Z,54.66
2023-03-06T11:54:16.812Z,54.44
2023-03-06T11:56:48.805Z,55.16
2023-03-06T11:59:30.617Z,55.17
2023-03-06T12:02:06.473Z,55.91
2023-03-06T12:04:45.090Z,55.74
2023-03-06T12:07:32.035Z,55.75
2023-03-06T12:09:58.947Z,56.34
2023-03-06T12:12:25.684Z,56.91
2023-03-06T12:14:58.763Z,56.28
2023-03-06T12:17:41.197Z,56.26
2023-03-06T12:20:27.914Z,56.50
2023-03-06T12:23:14.650Z,56.56
2023-03-06T12:25:49.101Z,56.68
2023-03-06T12:28:24.640Z,57.13
2023-03-06T12:30:54.035Z,57.36
2023-03-06T12:33:33.094Z,57.90
2023-03-06T12:36:44.602Z,57.37
2023-03-06T12:39:11.482Z,58.04
2023-03-06T12:41:53.125Z,58.64
2023-03-06T12:44:48.608Z,58.67
2023-03-06T12:47:20.825Z,58.58
2023-03-06T12:49:59.398Z,58.83
2023-03-06T12:52:31.367Z,58.77
2023-03-06T12:55:04.338Z,58.72
2023-03-06T12:57:31.126Z,59.09
2023-03-06T12:59:57.832Z,58.78
2023-03-06T13:02:54.342Z,58.48
2023-03-06T13:05:52.128Z,58.88
2023-03-06T13:08:59.074Z,59.12
2023-03-06T13:11:57.800Z,59.68
2023-03-06T13:14:54.028Z,59.14
2023-03-06T13:17:21.097Z,59.82
2023-03-06T13:19:48.598Z,59.96
2023-03-06T13:22:35.801Z,59.84
2023-03-06T13:25:20.803Z,59.92
2023-03-06T13:27:53.432Z,59.17
2023-03-06T13:30:45.274Z,59.57
2023-03-06T13:33:24.990Z,59.98
2023-03-06T13:35:51.752Z,59.70
2023-03-06T13:38:34.000Z,59.44
2023-03-06T13:41:30.101Z,58.95
2023-03-06T13:44:02.634Z,58.74
2023-03-06T13:46:35.665Z,58.30
2023-03-06T13:49:08.249Z,57.53
2023-03-06T13:51:47.300Z,57.50
2023-03-06T13:54:26.840Z,57.70
2023-03-06T13:57:07.629Z,57.63
2023-03-06T14:00:09.932Z,57.78
2023-03-06T14:02:40.884Z,57.96
2023-03-06T14:05:14.366Z,58.00
2023-03-06T14:07:49.570Z,58.18
2023-03-06T14:10:26.583Z,58.01
2023-03-06T14:13:08.053Z,58.92
2023-03-06T14:15:34.954Z,58.45
2023-03-06T14:18:40.222Z,58.29
2023-03-06T14:21:14.680Z,58.99
2023-03-06T14:23:45.952Z,58.94
2023-03-06T14:26:17.701Z,58.87
2023-03-06T14:29:05.023Z,58.84
2023-03-06T14:31:34.668Z,58.58
2023-03-06T14:34:06.982Z,58.98
2023-03-06T14:36:49.540Z,59.33
2023-03-06T14:39:22.718Z,58.71
2023-03-06T14:41:49.650Z,57.88
2023-03-06T14:44:26.486Z,57.93
2023-03-06T14:46:55.636Z,58.06
2023-03-06T14:49:25.251Z,57.70
2023-03-06T14:52:00.656Z,57.76
2023-03-06T14:54:34.477Z,57.39
2023-03-06T14:57:06.079Z,57.24
2023-03-06T14:59:43.083Z,56.63
2023-03-06T15:02:15.639Z,56.73
2023-03-06T15:04:46.536Z,56.92
2023-03-06T15:07:21.965Z,56.45
2023-03-06T15:09:51.679Z,56.50
2023-03-06T15:12:22.143Z,56.70
2023-03-06T15:15:01.088Z,57.37
2023-03-06T15:17:27.798Z,57.45
2023-03-06T15:19:56.818Z,57.91
2023-03-06T15:22:38.934Z,58.34
2023-03-06T15:25:31.265Z,58.79
2023-03-06T15:27:59.518Z,59.60
2023-03-06T15:30:29.330Z,59.70
2023-03-06T15:33:11.453Z,59.46
2023-03-06T15:35:38.931Z,59.60
2023-03-06T15:38:31.518Z,59.09
2023-03-06T15:41:00.524Z,59.28
2023-03-06T15:43:36.554Z,59.97
2023-03-06T15:46:06.385Z,60.20
2023-03-06T15:48:35.446Z,61.23
2023-03-06T15:51:03.404Z,60.98
2023-03-06T15:53:30.938Z,61.66
2023-03-06T15:55:59.403Z,61.91
2023-03-06T15:58:29.474Z,62.74
2023-03-06T16:00:56.313Z,62.69
2023-03-06T16:03:23.210Z,63.13
2023-03-06T16:05:50.091Z,63.31
2023-03-06T16:08:16.877Z,62.98
2023-03-06T16:10:44.645Z,63.84
2023-03-06T16:13:16.501Z,64.10
2023-03-06T16:15:47.833Z,64.05
2023-03-06T16:18:14.981Z,63.69
2023-03-06T16:20:41.839Z,63.53
2023-03-06T16:23:10.694Z,63.03
2023-03-06T16:25:40.495Z,63.01
2023-03-06T16:28:12.574Z,63.19
2023-03-06T16:30:39.221Z,63.51
2023-03-06T16:33:06.154Z,63.63
2023-03-06T16:35:33.036Z,64.14
2023-03-06T16:38:00.159Z,64.03
2023-03-06T16:40:41.030Z,64.12
2023-03-06T16:43:09.277Z,63.87
2023-03-06T16:45:38.920Z,63.72
2023-03-06T16:48:07.044Z,62.58
2023-03-06T16:50:40.724Z,60.71
2023-03-06T16:53:07.971Z,60.18
2023-03-06T16:55:34.841Z,59.26
2023-03-06T16:58:01.727Z,58.71
2023-03-06T17:00:33.256Z,58.74
2023-03-06T17:03:01.741Z,58.88
2023-03-06T17:05:29.273Z,59.91
2023-03-06T17:07:56.509Z,60.33
2023-03-06T17:10:26.419Z,60.28
2023-03-06T17:12:56.547Z,61.36
2023-03-06T17:15:24.350Z,61.47
2023-03-06T17:17:51.764Z,62.06
2023-03-06T17:20:19.437Z,61.24
2023-03-06T17:22:46.237Z,62.33
2023-03-06T17:25:13.048Z,62.35
2023-03-06T17:27:39.797Z,62.70
2023-03-06T17:30:07.222Z,62.85
2023-03-06T17:32:34.338Z,63.03
2023-03-06T17:35:01.496Z,62.85
2023-03-06T17:37:31.552Z,63.12
2023-03-06T17:39:58.302Z,63.05
2023-03-06T17:42:25.921Z,63.33
2023-03-06T17:44:53.074Z,63.07
2023-03-06T17:47:19.778Z,62.78
2023-03-06T17:49:46.663Z,62.53
2023-03-06T17:52:13.444Z,62.44
2023-03-06T17:54:41.612Z,61.41
2023-03-06T17:57:08.351Z,60.14
2023-03-06T17:59:35.182Z,59.25
2023-03-06T18:02:02.797Z,59.46
2023-03-06T18:04:29.964Z,58.43
2023-03-06T18:06:58.360Z,58.56
2023-03-06T18:09:25.183Z,58.92
2023-03-06T18:11:51.964Z,59.17
2023-03-06T18:14:18.803Z,60.03
2023-03-06T18:16:45.595Z,60.42
2023-03-06T18:19:13.984Z,61.15
2023-03-06T18:21:40.769Z,61.58
2023-03-06T18:24:07.999Z,62.08
2023-03-06T18:26:35.299Z,62.72
2023-03-06T18:29:06.155Z,63.38
2023-03-06T18:31:36.179Z,62.93
2023-03-06T18:34:14.219Z,62.48
2023-03-06T18:36:42.500Z,62.11
2023-03-06T18:39:11.806Z,62.17
2023-03-06T18:41:38.891Z,62.42
2023-03-06T18:44:06.284Z,62.89
2023-03-06T18:46:38.382Z,62.55
2023-03-06T18:49:05.375Z,62.90
2023-03-06T18:51:32.803Z,62.76
2023-03-06T18:54:04.259Z,62.73
2023-03-06T18:56:31.472Z,62.84
2023-03-06T18:59:04.471Z,62.97
2023-03-06T19:01:31.689Z,62.87
2023-03-06T19:04:02.598Z,63.17
2023-03-06T19:06:29.942Z,63.24
2023-03-06T19:09:01.518Z,63.52
2023-03-06T19:11:29.230Z,63.56
2023-03-06T19:13:56.005Z,63.68
2023-03-06T19:16:25.821Z,63.86
2023-03-06T19:18:55.185Z,63.83
2023-03-06T19:21:23.779Z,64.08
2023-03-06T19:23:50.740Z,64.27
2023-03-06T19:26:18.890Z,64.19
2023-03-06T19:28:46.945Z,64.49
2023-03-06T19:31:18.023Z,64.31
2023-03-06T19:33:47.903Z,64.20
2023-03-06T19:36:15.944Z,64.19
2023-03-06T19:38:42.984Z,64.27
2023-03-06T19:41:13.832Z,64.28
2023-03-06T19:43:42.399Z,64.82
2023-03-06T19:46:15.435Z,64.49
2023-03-06T19:48:42.625Z,64.64
2023-03-06T19:51:10.935Z,64.66
2023-03-06T19:53:39.671Z,64.77
2023-03-06T19:56:09.553Z,64.66
2023-03-06T19:58:36.904Z,64.48
2023-03-06T20:01:09.919Z,64.61
2023-03-06T20:03:36.837Z,64.83
2023-03-06T20:06:06.664Z,64.94
2023-03-06T20:08:33.512Z,65.00
2023-03-06T20:11:00.241Z,64.53
2023-03-06T20:13:27.489Z,64.66
2023-03-06T20:15:54.309Z,64.59
2023-03-06T20:18:21.096Z,64.79
2023-03-06T20:21:00.439Z,65.08
2023-03-06T20:23:28.005Z,65.11
2023-03-06T20:25:54.750Z,65.44
2023-03-06T20:28:22.388Z,65.48
2023-03-06T20:30:49.499Z,65.47
2023-03-06T20:33:16.891Z,65.69
2023-03-06T20:35:44.089Z,65.50
2023-03-06T20:38:11.466Z,65.51
2023-03-06T20:40:39.565Z,66.09
2023-03-06T20:43:06.504Z,66.61
2023-03-06T20:45:33.807Z,66.60
2023-03-06T20:48:00.895Z,66.75
2023-03-06T20:50:27.857Z,67.10
2023-03-06T20:52:56.103Z,67.45
2023-03-06T20:55:23.155Z,67.35
2023-03-06T20:57:51.468Z,67.22
2023-03-06T21:00:19.679Z,67.80
2023-03-06T21:02:46.751Z,67.72
2023-03-06T21:05:13.559Z,67.34
2023-03-06T21:07:40.335Z,66.88
2023-03-06T21:10:07.963Z,66.00
2023-03-06T21:12:34.781Z,65.65
2023-03-06T21:15:01.596Z,65.41
2023-03-06T21:17:30.176Z,65.37
2023-03-06T21:19:58.385Z,65.62
2023-03-06T21:22:25.498Z,66.20
2023-03-06T21:24:52.282Z,66.04
2023-03-06T21:27:19.279Z,66.12
2023-03-06T21:29:46.482Z,66.61
2023-03-06T21:32:13.456Z,66.48
2023-03-06T21:34:40.317Z,66.39
2023-03-06T21:37:07.134Z,66.49
2023-03-06T21:39:34.843Z,66.29
2023-03-06T21:42:01.891Z,65.91
2023-03-06T21:44:28.704Z,66.00
2023-03-06T21:46:55.489Z,65.97
2023-03-06T21:49:26.018Z,66.00
2023-03-06T21:51:53.657Z,66.10
2023-03-06T21:54:20.837Z,66.05
2023-03-06T21:56:47.701Z,65.94
2023-03-06T21:59:14.618Z,66.44
2023-03-06T22:01:42.765Z,66.72
2023-03-06T22:04:09.714Z,67.51
2023-03-06T22:06:38.360Z,67.65
2023-03-06T22:09:05.107Z,67.63
2023-03-06T22:11:34.268Z,67.92
2023-03-06T22:14:01.081Z,68.16
2023-03-06T22:16:27.849Z,68.91
2023-03-06T22:18:54.718Z,68.69
2023-03-06T22:21:22.486Z,68.55
2023-03-06T22:23:54.208Z,68.61
2023-03-06T22:26:21.315Z,68.44
2023-03-06T22:28:48.135Z,68.45
2023-03-06T22:31:17.725Z,68.89
2023-03-06T22:33:44.774Z,69.04
2023-03-06T22:36:14.271Z,69.32
2023-03-06T22:38:44.026Z,69.00
2023-03-06T22:41:12.365Z,69.13
2023-03-06T22:43:39.190Z,69.16
2023-03-06T22:46:12.613Z,69.11
2023-03-06T22:48:39.708Z,69.12
2023-03-06T22:51:12.956Z,68.96
2023-03-06T22:53:40.712Z,68.66
2023-03-06T22:56:10.319Z,69.48
2023-03-06T22:58:38.015Z,69.11
2023-03-06T23:01:08.554Z,69.65
2023-03-06T23:03:40.232Z,69.27
2023-03-06T23:06:22.089Z,69.55
2023-03-06T23:08:51.838Z,69.33
2023-03-06T23:11:22.401Z,69.44
2023-03-06T23:14:07.599Z,69.48
2023-03-06T23:16:53.250Z,69.49
2023-03-06T23:19:38.610Z,69.27
2023-03-06T23:22:23.918Z,69.61
2023-03-06T23:25:09.433Z,69.39
2023-03-06T23:27:36.603Z,69.97
2023-03-06T23:30:06.874Z,69.69
2023-03-06T23:32:33.818Z,69.62
2023-03-06T23:35:01.138Z,69.55
2023-03-06T23:37:27.962Z,69.55
2023-03-06T23:39:54.926Z,69.46
2023-03-06T23:42:22.654Z,69.37
2023-03-06T23:44:49.548Z,69.20
2023-03-06T23:47:17.284Z,69.46
2023-03-06T23:49:44.121Z,69.20
2023-03-06T23:52:10.819Z,69.13
2023-03-06T23:54:37.752Z,69.33
2023-03-06T23:57:04.564Z,69.94
2023-03-06T23:59:31.831Z,69.94
